sensor_id;sensor_type;location;lat;lon;timestamp;temperature;humidity
74809;DHT22;63338;39.544;2.596;2023-07-13T00:01:51;28.60;83.50
74809;DHT22;63338;39.544;2.596;2023-07-13T00:04:19;28.60;83.50
74809;DHT22;63338;39.544;2.596;2023-07-13T00:06:47;28.50;83.60
74809;DHT22;63338;39.544;2.596;2023-07-13T00:09:15;28.50;83.60
74809;DHT22;63338;39.544;2.596;2023-07-13T00:11:42;28.50;83.60
74809;DHT22;63338;39.544;2.596;2023-07-13T00:14:09;28.50;83.60
74809;DHT22;63338;39.544;2.596;2023-07-13T00:16:37;28.50;83.40
74809;DHT22;63338;39.544;2.596;2023-07-13T00:19:04;28.40;83.40
74809;DHT22;63338;39.544;2.596;2023-07-13T00:21:31;28.40;83.50
74809;DHT22;63338;39.544;2.596;2023-07-13T00:23:58;28.40;83.40
74809;DHT22;63338;39.544;2.596;2023-07-13T00:26:26;28.40;83.50
74809;DHT22;63338;39.544;2.596;2023-07-13T00:28:52;28.40;83.60
74809;DHT22;63338;39.544;2.596;2023-07-13T00:31:18;28.30;84.10
74809;DHT22;63338;39.544;2.596;2023-07-13T00:33:46;28.30;84.40
74809;DHT22;63338;39.544;2.596;2023-07-13T00:36:12;28.30;84.30
74809;DHT22;63338;39.544;2.596;2023-07-13T00:38:38;28.30;84.00
74809;DHT22;63338;39.544;2.596;2023-07-13T00:41:05;28.30;83.70
74809;DHT22;63338;39.544;2.596;2023-07-13T00:43:31;28.20;83.80
74809;DHT22;63338;39.544;2.596;2023-07-13T00:46:24;28.30;83.90
74809;DHT22;63338;39.544;2.596;2023-07-13T00:48:53;28.30;83.70
74809;DHT22;63338;39.544;2.596;2023-07-13T00:51:25;28.20;83.70
74809;DHT22;63338;39.544;2.596;2023-07-13T00:53:55;28.20;83.80
74809;DHT22;63338;39.544;2.596;2023-07-13T00:56:23;28.20;83.80
74809;DHT22;63338;39.544;2.596;2023-07-13T00:58:49;28.20;83.80
74809;DHT22;63338;39.544;2.596;2023-07-13T01:01:16;28.20;83.50
74809;DHT22;63338;39.544;2.596;2023-07-13T01:03:42;28.20;83.70
74809;DHT22;63338;39.544;2.596;2023-07-13T01:06:08;28.20;83.70
74809;DHT22;63338;39.544;2.596;2023-07-13T01:08:35;28.20;83.40
74809;DHT22;63338;39.544;2.596;2023-07-13T01:11:01;28.20;83.30
74809;DHT22;63338;39.544;2.596;2023-07-13T01:13:28;28.10;83.10
74809;DHT22;63338;39.544;2.596;2023-07-13T01:15:56;28.20;83.30
74809;DHT22;63338;39.544;2.596;2023-07-13T01:18:28;28.10;83.40
74809;DHT22;63338;39.544;2.596;2023-07-13T01:21:00;28.20;83.20
74809;DHT22;63338;39.544;2.596;2023-07-13T01:23:28;28.20;83.20
74809;DHT22;63338;39.544;2.596;2023-07-13T01:25:54;28.20;82.90
74809;DHT22;63338;39.544;2.596;2023-07-13T01:28:22;28.20;82.70
74809;DHT22;63338;39.544;2.596;2023-07-13T01:30:48;28.20;82.40
74809;DHT22;63338;39.544;2.596;2023-07-13T01:33:16;28.20;82.10
74809;DHT22;63338;39.544;2.596;2023-07-13T01:35:44;28.20;81.90
74809;DHT22;63338;39.544;2.596;2023-07-13T01:38:19;28.10;82.00
74809;DHT22;63338;39.544;2.596;2023-07-13T01:40:46;28.10;82.30
74809;DHT22;63338;39.544;2.596;2023-07-13T01:43:12;28.10;81.80
74809;DHT22;63338;39.544;2.596;2023-07-13T01:45:38;28.20;82.20
74809;DHT22;63338;39.544;2.596;2023-07-13T01:48:05;28.10;82.20
74809;DHT22;63338;39.544;2.596;2023-07-13T01:50:33;28.10;82.00
74809;DHT22;63338;39.544;2.596;2023-07-13T01:52:59;28.20;81.70
74809;DHT22;63338;39.544;2.596;2023-07-13T01:55:27;28.20;81.50
74809;DHT22;63338;39.544;2.596;2023-07-13T01:57:55;28.10;81.30
74809;DHT22;63338;39.544;2.596;2023-07-13T02:00:24;28.20;82.00
74809;DHT22;63338;39.544;2.596;2023-07-13T02:02:51;28.10;81.80
74809;DHT22;63338;39.544;2.596;2023-07-13T02:05:17;28.10;81.40
74809;DHT22;63338;39.544;2.596;2023-07-13T02:07:44;28.00;81.30
74809;DHT22;63338;39.544;2.596;2023-07-13T02:10:11;28.10;81.60
74809;DHT22;63338;39.544;2.596;2023-07-13T02:12:38;28.00;82.00
74809;DHT22;63338;39.544;2.596;2023-07-13T02:15:05;28.10;82.10
74809;DHT22;63338;39.544;2.596;2023-07-13T02:17:31;28.10;82.00
74809;DHT22;63338;39.544;2.596;2023-07-13T02:19:58;28.00;82.00
74809;DHT22;63338;39.544;2.596;2023-07-13T02:22:24;28.00;82.10
74809;DHT22;63338;39.544;2.596;2023-07-13T02:24:50;28.00;82.50
74809;DHT22;63338;39.544;2.596;2023-07-13T02:27:16;28.00;81.70
74809;DHT22;63338;39.544;2.596;2023-07-13T02:29:43;27.90;81.20
74809;DHT22;63338;39.544;2.596;2023-07-13T02:32:09;27.90;81.50
74809;DHT22;63338;39.544;2.596;2023-07-13T02:34:35;27.80;81.40
74809;DHT22;63338;39.544;2.596;2023-07-13T02:37:02;27.90;81.20
74809;DHT22;63338;39.544;2.596;2023-07-13T02:39:31;27.80;81.40
74809;DHT22;63338;39.544;2.596;2023-07-13T02:41:59;27.80;81.20
74809;DHT22;63338;39.544;2.596;2023-07-13T02:44:28;27.80;81.00
74809;DHT22;63338;39.544;2.596;2023-07-13T02:47:00;27.80;80.90
74809;DHT22;63338;39.544;2.596;2023-07-13T02:49:30;27.70;81.20
74809;DHT22;63338;39.544;2.596;2023-07-13T02:51:56;27.80;80.90
74809;DHT22;63338;39.544;2.596;2023-07-13T02:54:22;27.80;80.60
74809;DHT22;63338;39.544;2.596;2023-07-13T02:56:49;27.80;80.60
74809;DHT22;63338;39.544;2.596;2023-07-13T02:59:15;27.70;80.90
74809;DHT22;63338;39.544;2.596;2023-07-13T03:01:41;27.70;80.90
74809;DHT22;63338;39.544;2.596;2023-07-13T03:04:07;27.80;81.10
74809;DHT22;63338;39.544;2.596;2023-07-13T03:06:33;27.70;80.70
74809;DHT22;63338;39.544;2.596;2023-07-13T03:09:02;27.60;80.80
74809;DHT22;63338;39.544;2.596;2023-07-13T03:11:29;27.60;80.80
74809;DHT22;63338;39.544;2.596;2023-07-13T03:13:57;27.60;80.60
74809;DHT22;63338;39.544;2.596;2023-07-13T03:16:26;27.70;80.50
74809;DHT22;63338;39.544;2.596;2023-07-13T03:18:52;27.60;80.40
74809;DHT22;63338;39.544;2.596;2023-07-13T03:21:18;27.50;79.90
74809;DHT22;63338;39.544;2.596;2023-07-13T03:23:44;27.50;80.10
74809;DHT22;63338;39.544;2.596;2023-07-13T03:26:13;27.50;80.20
74809;DHT22;63338;39.544;2.596;2023-07-13T03:28:43;27.60;80.10
74809;DHT22;63338;39.544;2.596;2023-07-13T03:31:14;27.60;80.00
74809;DHT22;63338;39.544;2.596;2023-07-13T03:33:40;27.60;80.40
74809;DHT22;63338;39.544;2.596;2023-07-13T03:36:07;27.50;79.80
74809;DHT22;63338;39.544;2.596;2023-07-13T03:38:34;27.50;80.20
74809;DHT22;63338;39.544;2.596;2023-07-13T03:41:00;27.50;79.80
74809;DHT22;63338;39.544;2.596;2023-07-13T03:43:26;27.50;79.80
74809;DHT22;63338;39.544;2.596;2023-07-13T03:45:52;27.40;80.30
74809;DHT22;63338;39.544;2.596;2023-07-13T03:48:18;27.40;80.50
74809;DHT22;63338;39.544;2.596;2023-07-13T03:50:45;27.40;80.30
74809;DHT22;63338;39.544;2.596;2023-07-13T03:53:11;27.40;80.00
74809;DHT22;63338;39.544;2.596;2023-07-13T03:55:37;27.40;79.90
74809;DHT22;63338;39.544;2.596;2023-07-13T03:58:45;27.40;80.10
74809;DHT22;63338;39.544;2.596;2023-07-13T04:01:10;27.40;79.30
74809;DHT22;63338;39.544;2.596;2023-07-13T04:03:37;27.40;78.90
74809;DHT22;63338;39.544;2.596;2023-07-13T04:06:06;27.40;78.50
74809;DHT22;63338;39.544;2.596;2023-07-13T04:08:34;27.30;78.20
74809;DHT22;63338;39.544;2.596;2023-07-13T04:11:02;27.40;78.10
74809;DHT22;63338;39.544;2.596;2023-07-13T04:13:28;27.30;77.80
74809;DHT22;63338;39.544;2.596;2023-07-13T04:15:55;27.40;77.30
74809;DHT22;63338;39.544;2.596;2023-07-13T04:18:23;27.40;76.50
74809;DHT22;63338;39.544;2.596;2023-07-13T04:20:50;27.30;76.30
74809;DHT22;63338;39.544;2.596;2023-07-13T04:23:17;27.30;76.50
74809;DHT22;63338;39.544;2.596;2023-07-13T04:25:47;27.30;76.20
74809;DHT22;63338;39.544;2.596;2023-07-13T04:28:16;27.30;75.30
74809;DHT22;63338;39.544;2.596;2023-07-13T04:30:43;27.30;74.70
74809;DHT22;63338;39.544;2.596;2023-07-13T04:33:09;27.30;74.30
74809;DHT22;63338;39.544;2.596;2023-07-13T04:35:36;27.20;73.80
74809;DHT22;63338;39.544;2.596;2023-07-13T04:38:03;27.20;73.20
74809;DHT22;63338;39.544;2.596;2023-07-13T04:40:29;27.20;72.60
74809;DHT22;63338;39.544;2.596;2023-07-13T04:42:55;27.30;73.10
74809;DHT22;63338;39.544;2.596;2023-07-13T04:45:24;27.20;72.30
74809;DHT22;63338;39.544;2.596;2023-07-13T04:47:50;27.20;72.40
74809;DHT22;63338;39.544;2.596;2023-07-13T04:50:18;27.30;72.60
74809;DHT22;63338;39.544;2.596;2023-07-13T04:52:52;27.30;72.70
74809;DHT22;63338;39.544;2.596;2023-07-13T04:55:19;27.20;71.20
74809;DHT22;63338;39.544;2.596;2023-07-13T04:57:46;27.30;71.80
74809;DHT22;63338;39.544;2.596;2023-07-13T05:00:13;27.30;72.90
74809;DHT22;63338;39.544;2.596;2023-07-13T05:02:44;27.30;71.30
74809;DHT22;63338;39.544;2.596;2023-07-13T05:05:11;27.30;71.60
74809;DHT22;63338;39.544;2.596;2023-07-13T05:07:37;27.40;72.00
74809;DHT22;63338;39.544;2.596;2023-07-13T05:10:03;27.30;71.60
74809;DHT22;63338;39.544;2.596;2023-07-13T05:12:30;27.40;72.60
74809;DHT22;63338;39.544;2.596;2023-07-13T05:14:56;27.30;71.30
74809;DHT22;63338;39.544;2.596;2023-07-13T05:17:22;27.30;72.00
74809;DHT22;63338;39.544;2.596;2023-07-13T05:19:48;27.50;72.50
74809;DHT22;63338;39.544;2.596;2023-07-13T05:22:17;27.40;72.20
74809;DHT22;63338;39.544;2.596;2023-07-13T05:24:44;27.40;72.60
74809;DHT22;63338;39.544;2.596;2023-07-13T05:27:10;27.40;72.80
74809;DHT22;63338;39.544;2.596;2023-07-13T05:29:37;27.50;73.40
74809;DHT22;63338;39.544;2.596;2023-07-13T05:32:03;27.40;72.90
74809;DHT22;63338;39.544;2.596;2023-07-13T05:34:29;27.40;72.60
74809;DHT22;63338;39.544;2.596;2023-07-13T05:36:55;27.50;72.60
74809;DHT22;63338;39.544;2.596;2023-07-13T05:39:21;27.50;72.70
74809;DHT22;63338;39.544;2.596;2023-07-13T05:41:53;27.40;71.40
74809;DHT22;63338;39.544;2.596;2023-07-13T05:44:22;27.50;71.50
74809;DHT22;63338;39.544;2.596;2023-07-13T05:46:49;27.50;72.00
74809;DHT22;63338;39.544;2.596;2023-07-13T05:49:15;27.50;72.10
74809;DHT22;63338;39.544;2.596;2023-07-13T05:51:41;27.50;73.00
74809;DHT22;63338;39.544;2.596;2023-07-13T05:54:07;27.60;72.30
74809;DHT22;63338;39.544;2.596;2023-07-13T05:56:34;27.60;71.80
74809;DHT22;63338;39.544;2.596;2023-07-13T05:59:00;27.60;71.30
74809;DHT22;63338;39.544;2.596;2023-07-13T06:01:27;27.70;72.40
74809;DHT22;63338;39.544;2.596;2023-07-13T06:03:53;27.70;72.30
74809;DHT22;63338;39.544;2.596;2023-07-13T06:06:19;27.70;72.30
74809;DHT22;63338;39.544;2.596;2023-07-13T06:08:46;27.70;71.90
74809;DHT22;63338;39.544;2.596;2023-07-13T06:11:16;27.70;71.30
74809;DHT22;63338;39.544;2.596;2023-07-13T06:13:45;27.80;71.00
74809;DHT22;63338;39.544;2.596;2023-07-13T06:16:12;27.80;71.60
74809;DHT22;63338;39.544;2.596;2023-07-13T06:18:39;27.90;72.50
74809;DHT22;63338;39.544;2.596;2023-07-13T06:21:07;27.90;71.70
74809;DHT22;63338;39.544;2.596;2023-07-13T06:23:34;27.90;71.60
74809;DHT22;63338;39.544;2.596;2023-07-13T06:26:00;27.90;71.60
74809;DHT22;63338;39.544;2.596;2023-07-13T06:28:29;28.00;71.90
74809;DHT22;63338;39.544;2.596;2023-07-13T06:30:56;28.00;72.30
74809;DHT22;63338;39.544;2.596;2023-07-13T06:33:22;28.10;71.60
74809;DHT22;63338;39.544;2.596;2023-07-13T06:35:54;28.10;71.00
74809;DHT22;63338;39.544;2.596;2023-07-13T06:38:32;28.10;71.20
74809;DHT22;63338;39.544;2.596;2023-07-13T06:40:59;28.20;70.70
74809;DHT22;63338;39.544;2.596;2023-07-13T06:43:25;28.20;71.00
74809;DHT22;63338;39.544;2.596;2023-07-13T06:45:55;28.20;71.00
74809;DHT22;63338;39.544;2.596;2023-07-13T06:48:21;28.30;70.40
74809;DHT22;63338;39.544;2.596;2023-07-13T06:50:49;28.40;70.20
74809;DHT22;63338;39.544;2.596;2023-07-13T06:53:19;28.40;69.10
74809;DHT22;63338;39.544;2.596;2023-07-13T06:55:49;28.40;70.20
74809;DHT22;63338;39.544;2.596;2023-07-13T06:58:17;28.40;70.40
74809;DHT22;63338;39.544;2.596;2023-07-13T07:00:44;28.50;69.10
74809;DHT22;63338;39.544;2.596;2023-07-13T07:03:10;28.50;69.40
74809;DHT22;63338;39.544;2.596;2023-07-13T07:05:37;28.60;69.60
74809;DHT22;63338;39.544;2.596;2023-07-13T07:08:03;28.70;69.00
74809;DHT22;63338;39.544;2.596;2023-07-13T07:10:30;28.60;70.10
74809;DHT22;63338;39.544;2.596;2023-07-13T07:12:57;28.70;69.40
74809;DHT22;63338;39.544;2.596;2023-07-13T07:15:25;28.80;68.70
74809;DHT22;63338;39.544;2.596;2023-07-13T07:17:52;28.80;69.40
74809;DHT22;63338;39.544;2.596;2023-07-13T07:20:21;28.80;69.10
74809;DHT22;63338;39.544;2.596;2023-07-13T07:22:48;28.90;70.50
74809;DHT22;63338;39.544;2.596;2023-07-13T07:25:24;28.80;70.10
74809;DHT22;63338;39.544;2.596;2023-07-13T07:28:14;28.90;70.10
74809;DHT22;63338;39.544;2.596;2023-07-13T07:30:44;29.00;70.00
74809;DHT22;63338;39.544;2.596;2023-07-13T07:33:11;28.90;69.30
74809;DHT22;63338;39.544;2.596;2023-07-13T07:35:38;29.00;68.20
74809;DHT22;63338;39.544;2.596;2023-07-13T07:38:05;29.00;68.20
74809;DHT22;63338;39.544;2.596;2023-07-13T07:40:31;29.10;68.00
74809;DHT22;63338;39.544;2.596;2023-07-13T07:42:58;29.10;67.80
74809;DHT22;63338;39.544;2.596;2023-07-13T07:45:26;29.30;67.00
74809;DHT22;63338;39.544;2.596;2023-07-13T07:47:52;29.30;67.90
74809;DHT22;63338;39.544;2.596;2023-07-13T07:50:23;29.30;67.10
74809;DHT22;63338;39.544;2.596;2023-07-13T07:52:49;29.40;66.30
74809;DHT22;63338;39.544;2.596;2023-07-13T07:55:17;29.40;65.90
74809;DHT22;63338;39.544;2.596;2023-07-13T07:57:43;29.40;66.50
74809;DHT22;63338;39.544;2.596;2023-07-13T08:00:10;29.50;66.10
74809;DHT22;63338;39.544;2.596;2023-07-13T08:02:36;29.50;66.50
74809;DHT22;63338;39.544;2.596;2023-07-13T08:05:03;29.60;66.90
74809;DHT22;63338;39.544;2.596;2023-07-13T08:07:30;29.70;66.80
74809;DHT22;63338;39.544;2.596;2023-07-13T08:09:57;29.70;66.30
74809;DHT22;63338;39.544;2.596;2023-07-13T08:12:23;29.70;67.70
74809;DHT22;63338;39.544;2.596;2023-07-13T08:14:53;29.70;66.90
74809;DHT22;63338;39.544;2.596;2023-07-13T08:17:26;29.70;67.50
74809;DHT22;63338;39.544;2.596;2023-07-13T08:19:52;29.70;65.40
74809;DHT22;63338;39.544;2.596;2023-07-13T08:22:20;29.70;65.90
74809;DHT22;63338;39.544;2.596;2023-07-13T08:24:53;29.60;65.00
74809;DHT22;63338;39.544;2.596;2023-07-13T08:27:26;29.70;64.70
74809;DHT22;63338;39.544;2.596;2023-07-13T08:29:52;29.70;65.00
74809;DHT22;63338;39.544;2.596;2023-07-13T08:32:20;29.80;63.50
74809;DHT22;63338;39.544;2.596;2023-07-13T08:34:49;29.90;65.30
74809;DHT22;63338;39.544;2.596;2023-07-13T08:37:15;30.00;63.60
74809;DHT22;63338;39.544;2.596;2023-07-13T08:39:42;30.00;63.10
74809;DHT22;63338;39.544;2.596;2023-07-13T08:45:03;30.10;62.10
74809;DHT22;63338;39.544;2.596;2023-07-13T08:47:35;30.10;61.30
74809;DHT22;63338;39.544;2.596;2023-07-13T08:50:04;30.30;63.50
74809;DHT22;63338;39.544;2.596;2023-07-13T08:52:38;30.30;63.40
74809;DHT22;63338;39.544;2.596;2023-07-13T08:55:29;30.50;62.30
74809;DHT22;63338;39.544;2.596;2023-07-13T08:58:36;30.60;61.70
74809;DHT22;63338;39.544;2.596;2023-07-13T09:04:28;30.70;62.40
74809;DHT22;63338;39.544;2.596;2023-07-13T09:07:11;30.70;61.10
74809;DHT22;63338;39.544;2.596;2023-07-13T09:12:35;31.10;60.00
74809;DHT22;63338;39.544;2.596;2023-07-13T09:18:07;31.90;59.00
74809;DHT22;63338;39.544;2.596;2023-07-13T09:20:41;32.30;57.60
74809;DHT22;63338;39.544;2.596;2023-07-13T09:23:14;32.60;57.00
74809;DHT22;63338;39.544;2.596;2023-07-13T09:25:42;33.00;55.70
74809;DHT22;63338;39.544;2.596;2023-07-13T09:33:39;34.20;55.00
74809;DHT22;63338;39.544;2.596;2023-07-13T09:36:40;34.40;54.90
74809;DHT22;63338;39.544;2.596;2023-07-13T09:39:31;34.70;53.30
74809;DHT22;63338;39.544;2.596;2023-07-13T09:42:17;35.00;53.00
74809;DHT22;63338;39.544;2.596;2023-07-13T09:44:54;34.90;53.40
74809;DHT22;63338;39.544;2.596;2023-07-13T09:47:30;34.90;53.50
74809;DHT22;63338;39.544;2.596;2023-07-13T09:50:01;35.00;52.50
74809;DHT22;63338;39.544;2.596;2023-07-13T09:55:58;35.50;51.40
74809;DHT22;63338;39.544;2.596;2023-07-13T09:58:35;35.60;50.20
74809;DHT22;63338;39.544;2.596;2023-07-13T10:01:10;35.70;50.00
74809;DHT22;63338;39.544;2.596;2023-07-13T10:03:57;35.90;49.70
74809;DHT22;63338;39.544;2.596;2023-07-13T10:06:36;35.90;49.00
74809;DHT22;63338;39.544;2.596;2023-07-13T10:09:10;35.90;49.10
74809;DHT22;63338;39.544;2.596;2023-07-13T10:11:40;36.10;49.40
74809;DHT22;63338;39.544;2.596;2023-07-13T10:14:21;36.20;49.50
74809;DHT22;63338;39.544;2.596;2023-07-13T10:16:58;36.50;48.40
74809;DHT22;63338;39.544;2.596;2023-07-13T10:19:32;36.70;48.40
74809;DHT22;63338;39.544;2.596;2023-07-13T10:22:27;36.70;48.40
74809;DHT22;63338;39.544;2.596;2023-07-13T10:25:01;36.80;48.60
74809;DHT22;63338;39.544;2.596;2023-07-13T10:27:34;36.70;49.70
74809;DHT22;63338;39.544;2.596;2023-07-13T10:30:47;36.60;49.00
74809;DHT22;63338;39.544;2.596;2023-07-13T10:33:49;36.70;49.90
74809;DHT22;63338;39.544;2.596;2023-07-13T10:36:31;36.50;49.50
74809;DHT22;63338;39.544;2.596;2023-07-13T10:39:04;36.30;49.90
74809;DHT22;63338;39.544;2.596;2023-07-13T10:44:34;36.10;50.40
74809;DHT22;63338;39.544;2.596;2023-07-13T10:47:07;36.10;49.40
74809;DHT22;63338;39.544;2.596;2023-07-13T10:49:35;36.10;48.70
74809;DHT22;63338;39.544;2.596;2023-07-13T10:52:04;36.50;47.90
74809;DHT22;63338;39.544;2.596;2023-07-13T10:54:32;36.50;47.80
74809;DHT22;63338;39.544;2.596;2023-07-13T10:57:21;36.40;49.90
74809;DHT22;63338;39.544;2.596;2023-07-13T11:03:00;35.70;51.20
74809;DHT22;63338;39.544;2.596;2023-07-13T11:05:32;35.60;50.10
74809;DHT22;63338;39.544;2.596;2023-07-13T11:08:18;35.40;50.50
74809;DHT22;63338;39.544;2.596;2023-07-13T11:10:56;35.20;50.00
74809;DHT22;63338;39.544;2.596;2023-07-13T11:25:20;34.20;53.10
74809;DHT22;63338;39.544;2.596;2023-07-13T11:30:47;34.00;53.60
74809;DHT22;63338;39.544;2.596;2023-07-13T11:36:16;33.80;53.40
74809;DHT22;63338;39.544;2.596;2023-07-13T11:41:26;33.90;53.20
74809;DHT22;63338;39.544;2.596;2023-07-13T11:44:15;33.60;53.80
74809;DHT22;63338;39.544;2.596;2023-07-13T11:46:50;33.50;52.90
74809;DHT22;63338;39.544;2.596;2023-07-13T11:49:32;33.50;53.40
74809;DHT22;63338;39.544;2.596;2023-07-13T11:52:05;33.50;53.90
74809;DHT22;63338;39.544;2.596;2023-07-13T11:54:48;33.40;53.20
74809;DHT22;63338;39.544;2.596;2023-07-13T11:57:34;33.30;52.50
74809;DHT22;63338;39.544;2.596;2023-07-13T12:00:14;33.30;54.20
74809;DHT22;63338;39.544;2.596;2023-07-13T12:02:47;33.00;54.20
74809;DHT22;63338;39.544;2.596;2023-07-13T12:05:19;32.90;53.90
74809;DHT22;63338;39.544;2.596;2023-07-13T12:07:57;32.90;56.50
74809;DHT22;63338;39.544;2.596;2023-07-13T12:10:28;32.80;55.80
74809;DHT22;63338;39.544;2.596;2023-07-13T12:13:00;32.80;55.60
74809;DHT22;63338;39.544;2.596;2023-07-13T12:15:41;32.70;55.40
74809;DHT22;63338;39.544;2.596;2023-07-13T12:18:20;32.60;56.80
74809;DHT22;63338;39.544;2.596;2023-07-13T12:21:05;32.50;56.90
74809;DHT22;63338;39.544;2.596;2023-07-13T12:23:52;32.40;57.40
74809;DHT22;63338;39.544;2.596;2023-07-13T12:26:23;32.20;56.80
74809;DHT22;63338;39.544;2.596;2023-07-13T12:28:54;32.10;56.60
74809;DHT22;63338;39.544;2.596;2023-07-13T12:31:33;32.00;57.30
74809;DHT22;63338;39.544;2.596;2023-07-13T12:34:09;31.90;56.80
74809;DHT22;63338;39.544;2.596;2023-07-13T12:36:55;31.90;56.60
74809;DHT22;63338;39.544;2.596;2023-07-13T12:39:36;31.90;56.00
74809;DHT22;63338;39.544;2.596;2023-07-13T12:42:33;31.70;56.70
74809;DHT22;63338;39.544;2.596;2023-07-13T12:45:16;31.80;54.80
74809;DHT22;63338;39.544;2.596;2023-07-13T12:47:47;31.80;56.40
74809;DHT22;63338;39.544;2.596;2023-07-13T12:50:23;31.80;56.40
74809;DHT22;63338;39.544;2.596;2023-07-13T12:53:05;31.70;56.90
74809;DHT22;63338;39.544;2.596;2023-07-13T12:55:49;31.80;56.90
74809;DHT22;63338;39.544;2.596;2023-07-13T12:58:27;31.70;55.60
74809;DHT22;63338;39.544;2.596;2023-07-13T13:00:56;31.70;56.80
74809;DHT22;63338;39.544;2.596;2023-07-13T13:03:29;31.70;57.30
74809;DHT22;63338;39.544;2.596;2023-07-13T13:08:35;31.70;57.30
74809;DHT22;63338;39.544;2.596;2023-07-13T13:11:03;31.60;56.80
74809;DHT22;63338;39.544;2.596;2023-07-13T13:13:36;31.60;57.80
74809;DHT22;63338;39.544;2.596;2023-07-13T13:18:46;31.60;56.40
74809;DHT22;63338;39.544;2.596;2023-07-13T13:21:13;31.70;56.40
74809;DHT22;63338;39.544;2.596;2023-07-13T13:23:39;31.60;55.60
74809;DHT22;63338;39.544;2.596;2023-07-13T13:26:11;31.70;57.00
74809;DHT22;63338;39.544;2.596;2023-07-13T13:28:38;31.60;57.90
74809;DHT22;63338;39.544;2.596;2023-07-13T13:31:04;31.60;55.80
74809;DHT22;63338;39.544;2.596;2023-07-13T13:33:30;31.60;55.60
74809;DHT22;63338;39.544;2.596;2023-07-13T13:35:56;31.70;56.80
74809;DHT22;63338;39.544;2.596;2023-07-13T13:38:26;31.60;55.00
74809;DHT22;63338;39.544;2.596;2023-07-13T13:40:56;31.50;56.10
74809;DHT22;63338;39.544;2.596;2023-07-13T13:43:24;31.60;56.50
74809;DHT22;63338;39.544;2.596;2023-07-13T13:45:56;31.60;56.00
74809;DHT22;63338;39.544;2.596;2023-07-13T13:48:41;31.60;55.80
74809;DHT22;63338;39.544;2.596;2023-07-13T13:51:26;31.60;55.70
74809;DHT22;63338;39.544;2.596;2023-07-13T13:53:52;31.60;56.10
74809;DHT22;63338;39.544;2.596;2023-07-13T13:56:19;31.60;55.90
74809;DHT22;63338;39.544;2.596;2023-07-13T13:58:46;31.60;54.40
74809;DHT22;63338;39.544;2.596;2023-07-13T14:01:25;31.70;53.80
74809;DHT22;63338;39.544;2.596;2023-07-13T14:03:56;31.70;54.10
74809;DHT22;63338;39.544;2.596;2023-07-13T14:06:25;31.70;53.50
74809;DHT22;63338;39.544;2.596;2023-07-13T14:08:51;31.70;55.50
74809;DHT22;63338;39.544;2.596;2023-07-13T14:11:20;31.70;55.60
74809;DHT22;63338;39.544;2.596;2023-07-13T14:13:57;31.80;55.40
74809;DHT22;63338;39.544;2.596;2023-07-13T14:16:32;31.70;55.50
74809;DHT22;63338;39.544;2.596;2023-07-13T14:18:59;31.70;54.20
74809;DHT22;63338;39.544;2.596;2023-07-13T14:21:28;31.70;54.40
74809;DHT22;63338;39.544;2.596;2023-07-13T14:23:54;31.70;55.20
74809;DHT22;63338;39.544;2.596;2023-07-13T14:26:25;31.70;54.80
74809;DHT22;63338;39.544;2.596;2023-07-13T14:28:55;31.70;53.90
74809;DHT22;63338;39.544;2.596;2023-07-13T14:31:22;31.70;56.00
74809;DHT22;63338;39.544;2.596;2023-07-13T14:33:49;31.60;55.20
74809;DHT22;63338;39.544;2.596;2023-07-13T14:38:53;31.60;54.10
74809;DHT22;63338;39.544;2.596;2023-07-13T14:41:23;31.50;54.10
74809;DHT22;63338;39.544;2.596;2023-07-13T14:43:50;31.50;54.70
74809;DHT22;63338;39.544;2.596;2023-07-13T14:46:29;31.50;55.40
74809;DHT22;63338;39.544;2.596;2023-07-13T14:49:09;31.50;53.70
74809;DHT22;63338;39.544;2.596;2023-07-13T14:51:51;31.60;54.20
74809;DHT22;63338;39.544;2.596;2023-07-13T14:54:17;31.50;55.60
74809;DHT22;63338;39.544;2.596;2023-07-13T14:56:44;31.50;54.70
74809;DHT22;63338;39.544;2.596;2023-07-13T14:59:10;31.50;55.60
74809;DHT22;63338;39.544;2.596;2023-07-13T15:01:39;31.50;56.90
74809;DHT22;63338;39.544;2.596;2023-07-13T15:04:05;31.50;55.70
74809;DHT22;63338;39.544;2.596;2023-07-13T15:06:53;31.40;54.30
74809;DHT22;63338;39.544;2.596;2023-07-13T15:09:21;31.50;54.70
74809;DHT22;63338;39.544;2.596;2023-07-13T15:11:54;31.50;55.50
74809;DHT22;63338;39.544;2.596;2023-07-13T15:14:22;31.40;55.00
74809;DHT22;63338;39.544;2.596;2023-07-13T15:16:51;31.40;54.50
74809;DHT22;63338;39.544;2.596;2023-07-13T15:19:23;31.40;55.20
74809;DHT22;63338;39.544;2.596;2023-07-13T15:21:50;31.30;53.40
74809;DHT22;63338;39.544;2.596;2023-07-13T15:24:17;31.30;53.40
74809;DHT22;63338;39.544;2.596;2023-07-13T15:26:44;31.30;53.90
74809;DHT22;63338;39.544;2.596;2023-07-13T15:29:12;31.40;55.30
74809;DHT22;63338;39.544;2.596;2023-07-13T15:31:38;31.30;54.30
74809;DHT22;63338;39.544;2.596;2023-07-13T15:41:21;31.30;54.30
74809;DHT22;63338;39.544;2.596;2023-07-13T15:43:53;31.30;54.60
74809;DHT22;63338;39.544;2.596;2023-07-13T15:46:20;31.20;53.60
74809;DHT22;63338;39.544;2.596;2023-07-13T15:48:51;31.10;54.80
74809;DHT22;63338;39.544;2.596;2023-07-13T15:51:29;31.10;53.50
74809;DHT22;63338;39.544;2.596;2023-07-13T15:54:00;31.10;55.10
74809;DHT22;63338;39.544;2.596;2023-07-13T15:56:33;31.10;54.20
74809;DHT22;63338;39.544;2.596;2023-07-13T15:58:59;31.10;54.90
74809;DHT22;63338;39.544;2.596;2023-07-13T16:01:26;31.10;52.50
74809;DHT22;63338;39.544;2.596;2023-07-13T16:03:52;31.10;52.80
74809;DHT22;63338;39.544;2.596;2023-07-13T16:06:28;31.10;53.60
74809;DHT22;63338;39.544;2.596;2023-07-13T16:08:55;31.10;52.50
74809;DHT22;63338;39.544;2.596;2023-07-13T16:11:27;31.00;53.00
74809;DHT22;63338;39.544;2.596;2023-07-13T16:13:54;31.10;54.20
74809;DHT22;63338;39.544;2.596;2023-07-13T16:16:31;31.10;54.80
74809;DHT22;63338;39.544;2.596;2023-07-13T16:19:00;31.00;55.90
74809;DHT22;63338;39.544;2.596;2023-07-13T16:21:28;31.00;55.10
74809;DHT22;63338;39.544;2.596;2023-07-13T16:23:55;31.10;54.70
74809;DHT22;63338;39.544;2.596;2023-07-13T16:26:35;30.90;54.80
74809;DHT22;63338;39.544;2.596;2023-07-13T16:29:17;31.00;54.10
74809;DHT22;63338;39.544;2.596;2023-07-13T16:32:03;31.00;55.00
74809;DHT22;63338;39.544;2.596;2023-07-13T16:34:31;30.90;54.40
74809;DHT22;63338;39.544;2.596;2023-07-13T16:37:21;31.00;54.10
74809;DHT22;63338;39.544;2.596;2023-07-13T16:39:59;30.90;53.40
74809;DHT22;63338;39.544;2.596;2023-07-13T16:43:12;30.90;53.90
74809;DHT22;63338;39.544;2.596;2023-07-13T16:53:32;31.00;53.90
74809;DHT22;63338;39.544;2.596;2023-07-13T16:59:47;31.00;54.10
74809;DHT22;63338;39.544;2.596;2023-07-13T17:02:33;31.10;55.00
74809;DHT22;63338;39.544;2.596;2023-07-13T17:05:01;31.10;55.80
74809;DHT22;63338;39.544;2.596;2023-07-13T17:07:34;31.10;55.90